createdAt,value
2022-10-19T00:05:46.235Z,99301.82
2022-10-19T00:15:53.154Z,99305.03
2022-10-19T00:26:00.815Z,99310.03
2022-10-19T00:36:07.185Z,99301.79
2022-10-19T00:46:15.977Z,99302.59
2022-10-19T00:56:23.438Z,99302.40
2022-10-19T01:06:30.717Z,99293.73
2022-10-19T01:16:37.414Z,99294.92
2022-10-19T01:27:12.064Z,99301.01
2022-10-19T01:37:17.103Z,99310.21
2022-10-19T01:47:31.589Z,99299.92
2022-10-19T01:57:38.757Z,99287.33
2022-10-19T02:07:51.418Z,99283.39
2022-10-19T02:18:00.026Z,99284.15
2022-10-19T02:28:07.628Z,99284.83
2022-10-19T02:38:17.795Z,99281.92
2022-10-19T02:48:28.500Z,99285.88
2022-10-19T02:58:35.858Z,99286.48
2022-10-19T03:08:42.934Z,99279.83
2022-10-19T03:18:51.052Z,99277.45
2022-10-19T03:28:58.381Z,99271.41
2022-10-19T03:39:08.768Z,99272.30
2022-10-19T03:49:15.843Z,99265.20
2022-10-19T03:59:22.193Z,99250.61
2022-10-19T04:09:29.238Z,99247.91
2022-10-19T04:19:36.305Z,99253.25
2022-10-19T04:29:43.332Z,99238.68
2022-10-19T04:39:50.354Z,99231.48
2022-10-19T04:49:57.456Z,99225.89
2022-10-19T05:00:05.369Z,99222.57
2022-10-19T05:10:12.458Z,99211.73
2022-10-19T05:20:19.486Z,99206.63
2022-10-19T05:30:26.443Z,99209.46
2022-10-19T05:40:33.671Z,99216.86
2022-10-19T05:50:40.788Z,99226.48
2022-10-19T06:00:52.482Z,99229.34
2022-10-19T06:11:09.013Z,99237.87
2022-10-19T06:21:17.956Z,99247.05
2022-10-19T06:31:25.314Z,99246.52
2022-10-19T06:41:32.724Z,99240.96
2022-10-19T06:51:40.844Z,99252.25
2022-10-19T07:01:47.935Z,99259.86
2022-10-19T07:11:55.165Z,99260.48
2022-10-19T07:22:02.449Z,99266.66
2022-10-19T07:32:08.993Z,99276.19
2022-10-19T07:42:15.990Z,99274.42
2022-10-19T07:52:23.381Z,99276.73
2022-10-19T08:02:39.384Z,99284.09
2022-10-19T08:12:55.939Z,99277.86
2022-10-19T08:23:02.999Z,99275.28
2022-10-19T08:33:12.674Z,99280.42
2022-10-19T08:43:28.022Z,99284.21
2022-10-19T08:53:33.760Z,99287.56
2022-10-19T09:03:54.928Z,99288.14
2022-10-19T09:14:06.420Z,99283.70
2022-10-19T09:24:12.821Z,99288.64
2022-10-19T09:34:21.626Z,99283.45
2022-10-19T09:44:30.060Z,99288.42
2022-10-19T09:54:37.689Z,99293.29
2022-10-19T10:04:47.135Z,99295.77
2022-10-19T10:14:54.179Z,99302.59
2022-10-19T10:25:01.497Z,99314.45
2022-10-19T10:35:07.176Z,99318.14
2022-10-19T10:45:17.560Z,99321.54
2022-10-19T10:55:24.152Z,99307.55
2022-10-19T11:15:47.368Z,99312.83
2022-10-19T11:25:54.971Z,99292.25
2022-10-19T11:36:05.273Z,99288.27
2022-10-19T11:46:09.662Z,99289.25
2022-10-19T11:56:34.799Z,99287.77
2022-10-19T12:06:45.231Z,99290.31
2022-10-19T12:16:50.269Z,99293.58
2022-10-19T12:26:59.319Z,99282.05
2022-10-19T12:37:04.572Z,99268.38
2022-10-19T12:47:13.859Z,99266.94
2022-10-19T12:57:33.387Z,99279.45
2022-10-19T13:07:40.677Z,99296.71
2022-10-19T13:17:48.656Z,99295.33
2022-10-19T13:27:55.362Z,99292.60
2022-10-19T13:38:26.579Z,99293.77
2022-10-19T13:48:31.587Z,99297.69
2022-10-19T13:59:16.725Z,99297.63
2022-10-19T14:09:58.583Z,99302.27
2022-10-19T14:20:25.430Z,99302.29
2022-10-19T14:30:36.401Z,99304.61
2022-10-19T14:40:44.335Z,99289.30
2022-10-19T15:01:03.183Z,99297.67
2022-10-19T15:11:07.651Z,99299.17
2022-10-19T15:21:17.032Z,99304.23
2022-10-19T15:31:25.541Z,99309.80
2022-10-19T15:41:35.509Z,99332.13
2022-10-19T15:51:48.529Z,99345.70
2022-10-19T16:01:56.392Z,99344.25
2022-10-19T16:12:03.565Z,99354.34
2022-10-19T16:22:11.535Z,99365.91
2022-10-19T16:42:29.705Z,99385.24
2022-10-19T16:52:38.203Z,99388.70
2022-10-19T17:02:48.212Z,99400.54
2022-10-19T17:12:55.060Z,99417.97
2022-10-19T17:23:01.427Z,99439.32
2022-10-19T17:33:08.435Z,99448.02
2022-10-19T17:43:15.878Z,99456.54
2022-10-19T17:53:23.174Z,99470.62
2022-10-19T18:03:33.003Z,99473.64
2022-10-19T18:13:39.724Z,99481.33
2022-10-19T18:23:47.171Z,99488.00
2022-10-19T18:34:01.752Z,99491.23
2022-10-19T18:44:10.544Z,99496.25
2022-10-19T18:54:16.166Z,99496.76
2022-10-19T19:04:22.390Z,99507.65
2022-10-19T19:14:29.468Z,99514.60
2022-10-19T19:24:36.665Z,99517.33
2022-10-19T19:34:44.589Z,99530.48
2022-10-19T19:44:52.104Z,99546.65
2022-10-19T20:05:05.319Z,99559.73
2022-10-19T20:15:15.049Z,99574.41
2022-10-19T20:25:22.129Z,99582.63
2022-10-19T20:35:29.737Z,99589.09
2022-10-19T20:45:36.955Z,99595.50
2022-10-19T20:55:43.943Z,99601.63
2022-10-19T21:05:51.211Z,99610.41
2022-10-19T21:15:58.129Z,99607.16
2022-10-19T21:26:05.108Z,99611.27
2022-10-19T21:36:14.103Z,99612.48
2022-10-19T21:46:23.324Z,99607.42
2022-10-19T21:56:30.950Z,99605.98
2022-10-19T22:06:39.025Z,99603.89
2022-10-19T22:16:46.083Z,99612.23
2022-10-19T22:26:53.924Z,99620.71
2022-10-19T22:37:00.831Z,99624.06
2022-10-19T22:47:08.081Z,99626.79
2022-10-19T22:57:15.086Z,99637.13
2022-10-19T23:07:22.246Z,99632.94
2022-10-19T23:17:29.197Z,99625.69
2022-10-19T23:27:36.125Z,99635.35
2022-10-19T23:37:43.444Z,99649.66
2022-10-19T23:47:50.531Z,99661.00
2022-10-19T23:57:57.556Z,99665.25
